Latest Coastal Weather Observations for Portland Airport

IDV60701

Issued at 12:21 pm EST Thursday 28 May 2020 (issued every 10 minutes, with the page automatically refreshed every 10 minutes)

About coastal observations | Map of coastal stations | Coastal observations for VIC | Marine services | Other Formats
Station Details ID: 090171 Name: CASHMORE AIRPORT Lat: -38.31 Lon: 141.47 Height: 80.9 m
Data from the previous 72 hours. | See also: Recent months at Portland Airport
Date/Time
EST
Wind Sea
Height
m
Swell Vis
km
Cloud Weather Temp
°C
Press
hPa
Rain since
9am
mm
Dir  Spd
kts
Gust
kts
Height
m
Period
s
Dir
28/12:00pm WNW 11 18 - - - - 10 Cloudy - 13.3 1021.5 0.0
28/11:30am NW 11 15 - - - - 10 Partly cloudy - 13.1 1021.6 0.0
28/11:24am NW 10 14 - - - - 10 Partly cloudy - 12.8 1021.6 0.0
28/11:00am NNW 7 11 - - - - 10 Partly cloudy - 12.8 1021.6 0.0
28/10:34am NNW 9 11 - - - - 10 Partly cloudy - 11.9 1021.5 0.0
28/10:30am NNW 8 11 - - - - 10 Partly cloudy - 12.0 1021.5 0.0
28/10:17am NNW 10 13 - - - - 6 Partly cloudy - 11.8 1021.5 0.0
28/10:00am NNW 9 12 - - - - 10 Partly cloudy - 11.7 1021.3 0.0
28/09:30am NNW 9 13 - - - - 10 Partly cloudy - 11.1 1021.1 0.0
28/09:22am NNW 9 13 - - - - 10 Partly cloudy - 10.8 1021.1 0.0
28/09:00am NNW 9 13 - - - - 10 Mostly cloudy Recent precip. 10.4 1021.0 3.8
28/08:30am NNW 8 13 - - - - 8 Cloudy - 10.1 1020.7 3.8
28/08:12am N 7 9 - - - - 10 Partly cloudy - 9.4 1020.6 3.6
28/08:00am NNW 7 9 - - - - 10 - - 9.3 1020.3 3.6
28/07:30am N 7 10 - - - - 10 Partly cloudy - 9.4 1019.9 3.6
28/07:00am N 7 10 - - - - 10 Partly cloudy - 9.2 1019.7 3.6
28/06:55am N 7 10 - - - - 10 Partly cloudy - 9.3 1019.7 3.6
28/06:30am NNW 8 9 - - - - 9 Cloudy - 9.3 1019.4 3.6
28/06:27am NNW 8 10 - - - - 7 Cloudy - 9.3 1019.4 3.6
28/06:00am NNW 7 9 - - - - 2 Cloudy - 9.3 1019.4 3.6
28/05:34am NNW 7 9 - - - - 6 Partly cloudy - 9.6 1019.3 3.6
28/05:30am NNW 7 9 - - - - 10 Partly cloudy - 9.5 1019.3 3.6
28/05:09am N 5 7 - - - - 10 Partly cloudy - 9.3 1019.3 3.6
28/05:00am NNW 6 8 - - - - 10 Partly cloudy - 9.6 1019.3 3.6
28/04:38am NW 7 10 - - - - 10 Partly cloudy - 10.6 1019.2 3.6
28/04:30am NW 9 15 - - - - 7 Partly cloudy - 10.8 1019.1 3.6
28/04:23am NW 10 14 - - - - 10 Partly cloudy - 10.8 1019.2 3.6
28/04:09am NW 8 11 - - - - 10 Partly cloudy - 10.5 1019.1 3.6
28/04:00am NW 8 11 - - - - 10 Partly cloudy - 10.5 1019.0 3.6
28/03:30am NW 10 13 - - - - 10 Partly cloudy - 10.7 1019.0 3.6
28/03:25am NW 9 12 - - - - 10 Partly cloudy - 10.7 1019.1 3.6
28/03:00am NW 9 12 - - - - 10 Cloudy - 10.9 1019.0 3.6
28/02:49am NW 9 12 - - - - 10 Partly cloudy - 10.8 1019.0 3.6
28/02:30am NNW 6 8 - - - - 10 Partly cloudy - 10.5 1019.0 3.6
28/02:12am NNW 7 8 - - - - 10 Partly cloudy - 10.4 1018.9 3.6
28/02:00am NNW 7 9 - - - - 10 Partly cloudy - 10.3 1018.8 3.6
28/01:30am N 5 7 - - - - 10 Partly cloudy - 9.7 1018.5 3.6
28/01:00am NNW 6 7 - - - - 10 Partly cloudy - 10.1 1018.6 3.6
28/12:30am N 5 7 - - - - 10 - - 9.7 1018.5 3.6
28/12:00am NNW 6 8 - - - - 10 Cloudy Rain 10.7 1018.6 3.6
 
Date/Time
EST
Wind Sea
Height
m
Swell Vis
km
Cloud Weather Temp
°C
Press
hPa
Rain since
9am
mm
Dir  Spd
kts
Gust
kts
Height
m
Period
s
Dir
27/11:53pm NNW 5 7 - - - - 10 Partly cloudy - 10.4 1018.6 3.4
27/11:37pm NW 6 8 - - - - 6 Partly cloudy - 11.2 1018.5 3.4
27/11:30pm NW 6 9 - - - - 10 Partly cloudy - 11.1 1018.5 3.4
27/11:00pm NW 8 10 - - - - 10 Partly cloudy - 11.5 1018.4 3.4
27/10:58pm NW 8 10 - - - - 10 Partly cloudy - 11.5 1018.4 3.4
27/10:46pm NW 7 10 - - - - 10 Partly cloudy - 11.3 1018.4 3.4
27/10:30pm NNW 5 8 - - - - 4 Partly cloudy - 11.4 1018.5 3.4
27/10:20pm NW 6 9 - - - - 5 Partly cloudy - 11.5 1018.5 3.0
27/10:11pm WNW 6 9 - - - - 6 Partly cloudy - 11.7 1018.5 2.8
27/10:00pm NW 7 9 - - - - 10 Partly cloudy - 11.6 1018.4 2.4
27/09:30pm WNW 8 11 - - - - 9 Partly cloudy - 11.7 1018.3 2.4
27/09:00pm WNW 8 14 - - - - 7 Mostly cloudy Recent precip. 11.7 1018.2 2.0
27/08:30pm WNW 7 9 - - - - 10 Partly cloudy - 11.8 1018.0 2.0
27/08:22pm WNW 8 10 - - - - 10 Partly cloudy - 11.8 1018.0 2.0
27/08:06pm WNW 7 12 - - - - 5 Partly cloudy - 12.2 1017.9 2.0
27/08:04pm WNW 7 12 - - - - 7 Partly cloudy - 12.2 1017.9 2.0
27/08:00pm WNW 7 8 - - - - 10 Partly cloudy - 12.1 1017.9 1.8
27/07:57pm WNW 7 8 - - - - 10 Partly cloudy - 12.1 1017.8 1.8
27/07:47pm WNW 6 7 - - - - 6 Partly cloudy - 12.4 1017.8 1.8
27/07:41pm NW 6 8 - - - - 6 Partly cloudy - 12.3 1017.7 1.6
27/07:30pm NW 7 9 - - - - 10 Partly cloudy - 12.2 1017.6 1.4
27/07:00pm NW 7 9 - - - - 10 Partly cloudy - 12.5 1017.4 1.4
27/06:40pm WNW 7 10 - - - - 6 Partly cloudy - 12.6 1017.3 0.6
27/06:30pm NW 9 11 - - - - 10 Partly cloudy - 12.4 1017.1 0.0
27/06:29pm NW 9 11 - - - - 10 Partly cloudy - 12.4 1017.1 0.0
27/06:00pm NNW 7 10 - - - - 10 Cloudy - 12.6 1016.9 0.0
27/05:58pm NNW 7 10 - - - - 10 Partly cloudy - 12.6 1016.9 0.0
27/05:30pm NNW 8 11 - - - - 10 Partly cloudy - 12.9 1016.6 0.0
27/05:24pm NNW 8 11 - - - - 10 Partly cloudy - 12.9 1016.5 0.0
27/05:00pm NW 8 12 - - - - 10 Partly cloudy - 13.2 1016.4 0.0
27/04:43pm NNW 11 17 - - - - 10 Partly cloudy - 13.5 1016.2 0.0
27/04:39pm NNW 10 17 - - - - 10 Partly cloudy - 13.5 1016.2 0.0
27/04:30pm NNW 10 13 - - - - 10 Partly cloudy - 13.5 1016.2 0.0
27/04:25pm NNW 10 15 - - - - 10 Partly cloudy - 13.5 1016.2 0.0
27/04:00pm NNW 11 17 - - - - 10 Partly cloudy - 13.9 1016.1 0.0
27/03:30pm NNW 10 17 - - - - 10 Partly cloudy - 14.3 1015.8 0.0
27/03:00pm NNW 10 15 - - - - 10 Cloudy - 14.3 1015.8 0.0
27/02:30pm NNW 13 17 - - - - 10 Partly cloudy - 14.9 1015.9 0.0
27/02:00pm NW 11 17 - - - - 10 Partly cloudy - 15.1 1015.9 0.0
27/01:30pm NNW 11 15 - - - - 10 Partly cloudy - 15.2 1016.0 0.0
27/01:00pm NNW 13 19 - - - - 10 Partly cloudy - 15.9 1016.0 0.0
27/12:30pm NNW 13 19 - - - - 10 Partly cloudy - 15.3 1016.2 0.0
27/12:00pm NNW 13 19 - - - - 10 Cloudy - 15.6 1016.7 0.0
27/11:30am NNW 13 19 - - - - 10 - - 14.9 1017.0 0.0
27/11:00am NNW 11 17 - - - - 10 Partly cloudy - 14.8 1017.3 0.0
27/10:30am NNW 12 19 - - - - 10 Cloudy - 13.5 1017.5 0.0
27/10:00am N 9 14 - - - - 10 Partly cloudy - 13.2 1017.4 0.0
27/09:30am N 9 13 - - - - 10 Partly cloudy - 12.4 1017.6 0.0
27/09:00am N 7 10 - - - - 10 Partly cloudy - 10.7 1017.7 0.0
27/08:30am N 9 13 - - - - 10 Partly cloudy - 11.0 1017.6 0.0
27/08:00am N 9 11 - - - - 10 Cloudy - 10.8 1017.5 0.0
27/07:30am N 7 13 - - - - 10 Cloudy - 10.8 1017.3 0.0
27/07:00am N 6 8 - - - - 10 Partly cloudy - 10.2 1017.1 0.0
27/06:30am N 8 11 - - - - 10 Partly cloudy - 10.5 1016.8 0.0
27/06:00am N 9 14 - - - - 10 Cloudy - 10.8 1016.4 0.0
27/05:30am N 7 11 - - - - 10 - - 10.9 1016.6 0.0
27/05:00am N 7 10 - - - - 10 Partly cloudy - 10.9 1016.8 0.0
27/04:30am N 6 8 - - - - 10 Partly cloudy - 10.9 1017.2 0.0
27/04:00am N 7 11 - - - - 10 - - 11.3 1017.3 0.0
27/03:30am N 7 10 - - - - 10 - - 10.7 1017.4 0.0
27/03:00am NNE 5 7 - - - - 10 Cloudy - 10.1 1017.5 0.0
27/02:30am NNE 5 7 - - - - 10 - - 10.1 1017.7 0.0
27/02:00am NNE 6 7 - - - - 10 - - 10.1 1017.7 0.0
27/01:30am NNE 6 9 - - - - 10 - - 9.9 1018.0 0.0
27/01:00am NNE 5 7 - - - - 10 - - 9.6 1018.1 0.0
27/12:30am NNE 5 6 - - - - 10 - - 9.3 1018.3 0.0
27/12:00am N 5 7 - - - - 10 Cloudy - 9.0 1018.5 0.0
 
Date/Time
EST
Wind Sea
Height
m
Swell Vis
km
Cloud Weather Temp
°C
Press
hPa
Rain since
9am
mm
Dir  Spd
kts
Gust
kts
Height
m
Period
s
Dir
26/11:30pm NNE 5 5 - - - - 10 - - 8.3 1018.7 0.0
26/11:00pm NNE 4 5 - - - - 10 - - 7.8 1018.8 0.0
26/10:30pm CALM 0 0 - - - - 10 - - 7.6 1019.0 0.0
26/10:00pm NNE 3 5 - - - - 10 - - 9.3 1019.0 0.0
26/09:30pm NNE 4 6 - - - - 10 - - 9.7 1019.0 0.0
26/09:00pm NE 5 7 - - - - 10 Mostly cloudy - 9.9 1018.8 0.0
26/08:30pm NNE 5 8 - - - - 10 - - 10.3 1018.7 0.0
26/08:00pm NNE 5 8 - - - - 10 - - 10.4 1018.6 0.0
26/07:30pm NE 6 8 - - - - 10 - - 11.1 1018.2 0.0
26/07:00pm NE 8 11 - - - - 10 - - 11.5 1017.9 0.0
26/06:30pm NE 9 13 - - - - 10 - - 11.6 1018.1 0.0
26/06:00pm NE 5 7 - - - - 10 - - 11.0 1018.4 0.0
26/05:30pm NE 5 7 - - - - 10 - - 11.7 1018.5 0.0
26/05:00pm NNE 7 10 - - - - 10 - - 12.7 1018.7 0.0
26/04:30pm NNE 8 11 - - - - 10 - - 13.8 1018.6 0.0
26/04:00pm NNE 9 14 - - - - 10 - - 14.6 1018.8 0.0
26/03:30pm N 10 16 - - - - 10 - - 14.8 1019.1 0.0
26/03:00pm N 9 15 - - - - 10 - - 15.4 1019.2 0.0
26/02:30pm NNE 10 15 - - - - 10 - - 15.6 1019.5 0.0
26/02:00pm NNE 9 13 - - - - 10 - - 15.3 1020.0 0.0
26/01:30pm NNE 11 15 - - - - 10 - - 14.8 1020.3 0.0
26/01:00pm N 9 14 - - - - 10 - - 14.2 1020.8 0.0
26/12:30pm N 9 13 - - - - 10 - - 14.1 1021.2 0.0
26/12:00pm N 10 15 - - - - 10 - - 12.9 1021.8 0.0
26/11:30am NNE 10 16 - - - - 10 - - 12.3 1022.4 0.0
26/11:00am N 8 11 - - - - 10 - - 10.0 1022.9 0.0
26/10:30am N 8 11 - - - - 10 - - 9.4 1023.3 0.0
26/10:00am N 6 9 - - - - 10 - - 8.1 1023.4 0.0
26/09:30am NNE 4 6 - - - - 10 - - 6.9 1023.5 0.0
26/09:00am NNE 4 6 - - - - 10 - - 6.0 1023.5 0.4
26/08:34am N 5 5 - - - - 10 - - 4.2 1023.4 0.4
26/08:30am N 5 5 - - - - 9 - - 3.9 1023.3 0.4
26/08:21am NNE 3 5 - - - - 6 - - 3.2 1023.4 0.4
26/08:00am ENE 3 4 - - - - 10 - - 3.9 1023.3 0.4
26/07:30am ENE 5 6 - - - - 8 - - 4.3 1023.2 0.2
26/07:03am ENE 4 6 - - - - 8 - - 4.2 1023.2 0.2
26/07:00am ENE 4 6 - - - - 9 - - 4.3 1023.2 0.2
26/06:30am NE 1 3 - - - - 0.8 - - 2.9 1023.1 0.2
26/06:00am NE 2 4 - - - - 2 - - 3.6 1023.0 0.2
26/05:30am NNW 3 4 - - - - 2 - - 3.5 1023.1 0.2
26/05:18am N 3 5 - - - - 5 - - 3.9 1023.2 0.2
26/05:00am N 5 5 - - - - 10 - - 4.7 1023.2 0.2
26/04:30am N 5 8 - - - - 10 - - 5.2 1023.3 0.2
26/04:00am NNE 5 6 - - - - 10 - - 4.9 1023.4 0.2
26/03:30am N 4 5 - - - - 10 - - 4.8 1023.6 0.2
26/03:00am ENE 5 7 - - - - 10 - - 5.9 1023.3 0.2
26/02:30am ENE 4 5 - - - - 10 - - 5.3 1023.3 0.2
26/02:00am NE 2 5 - - - - 10 - - 5.9 1023.7 0.2
26/01:30am NNW 5 7 - - - - 10 - - 6.3 1023.8 0.2
26/01:00am ENE 6 9 - - - - 10 - - 7.7 1023.2 0.2
26/12:30am ENE 9 13 - - - - 10 - - 7.8 1023.2 0.2
26/12:00am ENE 10 15 - - - - 10 - Recent precip. 8.1 1023.1 0.2
 
Date/Time
EST
Wind Sea
Height
m
Swell Vis
km
Cloud Weather Temp
°C
Press
hPa
Rain since
9am
mm
Dir  Spd
kts
Gust
kts
Height
m
Period
s
Dir
25/11:30pm ENE 8 15 - - - - 10 - - 8.8 1023.3 0.2
25/11:00pm ENE 10 15 - - - - 10 - - 9.0 1023.4 0.0
25/10:30pm ENE 9 14 - - - - 10 - - 8.8 1023.8 0.0
25/10:00pm ENE 9 14 - - - - 10 - - 9.1 1024.0 0.0
25/09:30pm ENE 7 10 - - - - 10 - - 9.2 1024.4 0.0
25/09:00pm ENE 7 10 - - - - 10 - - 9.1 1024.5 0.0
25/08:30pm ENE 6 9 - - - - 10 - - 8.9 1024.8 0.0
25/08:01pm CALM 0 4 - - - - 8 - - 5.9 1024.8 0.0
25/08:00pm CALM 0 0 - - - - 7 - - 6.0 1024.8 0.0
25/07:30pm CALM 0 0 - - - - 4 - - 5.9 1025.0 0.0
25/07:28pm CALM 0 0 - - - - 6 - - 6.1 1025.0 0.0
25/07:00pm ESE 1 3 - - - - 10 - - 6.6 1024.8 0.0
25/06:30pm E 3 5 - - - - 10 - - 8.6 1024.6 0.0
25/06:00pm E 5 6 - - - - 10 - - 8.6 1024.3 0.0
25/05:30pm E 5 6 - - - - 10 - - 9.7 1024.4 0.0
25/05:00pm E 5 7 - - - - 10 - - 11.6 1024.5 0.0
25/04:30pm E 5 8 - - - - 10 - - 12.7 1024.7 0.0
25/04:00pm E 6 8 - - - - 10 - - 13.1 1024.7 0.0
25/03:30pm ESE 5 8 - - - - 10 Partly cloudy - 13.3 1025.0 0.0
25/03:00pm ESE 6 8 - - - - 10 Mostly clear - 13.2 1025.1 0.0
25/02:30pm ESE 6 9 - - - - 10 Partly cloudy - 13.4 1025.1 0.0
25/02:00pm E 6 9 - - - - 10 Partly cloudy - 13.4 1025.2 0.0
25/01:30pm ESE 7 9 - - - - 10 Cloudy - 12.8 1025.3 0.0
25/01:00pm E 7 9 - - - - 10 Partly cloudy - 12.9 1025.5 0.0
25/12:30pm ENE 8 13 - - - - 10 Partly cloudy - 13.1 1025.5 0.0

Other formats

Comma delimited format used in spreadsheet applications
http://www.bom.gov.au/fwo/IDV60701/IDV60701.94828.axf

JavaScript Object Notation format (JSON) in row-major order
http://www.bom.gov.au/fwo/IDV60701/IDV60701.94828.json

Data quality

Most of these data are generated automatically and are frequently updated. Quality checks on data are not normally performed. It is possible for incorrect values to appear. Refer to information at About Latest Weather Observations and please check the disclaimer before using these data.